sensor_id;sensor_type;location;lat;lon;timestamp;P1;durP1;ratioP1;P2;durP2;ratioP2
78840;SDS011;68379;47.190;27.558;2023-06-19T00:01:05;5.80;;;4.00;;
78840;SDS011;68379;47.190;27.558;2023-06-19T00:03:40;5.00;;;3.40;;
78840;SDS011;68379;47.190;27.558;2023-06-19T00:06:09;6.20;;;3.20;;
78840;SDS011;68379;47.190;27.558;2023-06-19T00:08:39;4.80;;;3.50;;
78840;SDS011;68379;47.190;27.558;2023-06-19T00:11:09;4.50;;;3.10;;
78840;SDS011;68379;47.190;27.558;2023-06-19T00:13:38;4.10;;;2.90;;
78840;SDS011;68379;47.190;27.558;2023-06-19T00:16:07;5.20;;;3.00;;
78840;SDS011;68379;47.190;27.558;2023-06-19T00:18:37;6.00;;;2.70;;
78840;SDS011;68379;47.190;27.558;2023-06-19T00:21:07;3.80;;;2.90;;
78840;SDS011;68379;47.190;27.558;2023-06-19T00:23:36;4.40;;;2.30;;
78840;SDS011;68379;47.190;27.558;2023-06-19T00:26:05;4.90;;;2.40;;
78840;SDS011;68379;47.190;27.558;2023-06-19T00:28:34;3.20;;;2.20;;
78840;SDS011;68379;47.190;27.558;2023-06-19T00:31:06;3.10;;;2.10;;
78840;SDS011;68379;47.190;27.558;2023-06-19T00:33:36;5.20;;;2.00;;
78840;SDS011;68379;47.190;27.558;2023-06-19T00:36:09;2.80;;;2.10;;
78840;SDS011;68379;47.190;27.558;2023-06-19T00:38:39;3.40;;;1.90;;
78840;SDS011;68379;47.190;27.558;2023-06-19T00:41:08;3.00;;;2.20;;
78840;SDS011;68379;47.190;27.558;2023-06-19T00:43:38;4.00;;;2.40;;
78840;SDS011;68379;47.190;27.558;2023-06-19T00:46:07;3.40;;;2.20;;
78840;SDS011;68379;47.190;27.558;2023-06-19T00:48:36;3.30;;;1.80;;
78840;SDS011;68379;47.190;27.558;2023-06-19T00:51:06;4.60;;;2.70;;
78840;SDS011;68379;47.190;27.558;2023-06-19T00:53:35;4.00;;;2.30;;
78840;SDS011;68379;47.190;27.558;2023-06-19T00:56:04;4.00;;;2.80;;
78840;SDS011;68379;47.190;27.558;2023-06-19T00:58:34;3.30;;;2.20;;
78840;SDS011;68379;47.190;27.558;2023-06-19T01:01:03;4.50;;;2.10;;
78840;SDS011;68379;47.190;27.558;2023-06-19T01:03:32;4.70;;;2.50;;
78840;SDS011;68379;47.190;27.558;2023-06-19T01:06:03;4.80;;;2.60;;
78840;SDS011;68379;47.190;27.558;2023-06-19T01:08:46;4.30;;;2.40;;
78840;SDS011;68379;47.190;27.558;2023-06-19T01:11:25;3.50;;;2.10;;
78840;SDS011;68379;47.190;27.558;2023-06-19T01:14:02;4.40;;;2.50;;
78840;SDS011;68379;47.190;27.558;2023-06-19T01:16:35;4.30;;;2.90;;
78840;SDS011;68379;47.190;27.558;2023-06-19T01:19:05;4.50;;;2.70;;
78840;SDS011;68379;47.190;27.558;2023-06-19T01:21:37;7.50;;;3.10;;
78840;SDS011;68379;47.190;27.558;2023-06-19T01:24:06;4.40;;;2.40;;
78840;SDS011;68379;47.190;27.558;2023-06-19T01:26:35;5.00;;;2.60;;
78840;SDS011;68379;47.190;27.558;2023-06-19T01:29:05;5.60;;;2.90;;
78840;SDS011;68379;47.190;27.558;2023-06-19T01:31:35;7.50;;;3.00;;
78840;SDS011;68379;47.190;27.558;2023-06-19T01:34:10;4.80;;;2.60;;
78840;SDS011;68379;47.190;27.558;2023-06-19T01:36:40;4.50;;;2.50;;
78840;SDS011;68379;47.190;27.558;2023-06-19T01:39:10;4.40;;;2.50;;
78840;SDS011;68379;47.190;27.558;2023-06-19T01:41:41;7.00;;;2.90;;
78840;SDS011;68379;47.190;27.558;2023-06-19T01:44:11;3.80;;;2.30;;
78840;SDS011;68379;47.190;27.558;2023-06-19T01:46:41;4.00;;;2.10;;
78840;SDS011;68379;47.190;27.558;2023-06-19T01:49:10;3.40;;;1.90;;
78840;SDS011;68379;47.190;27.558;2023-06-19T01:51:41;5.40;;;2.00;;
78840;SDS011;68379;47.190;27.558;2023-06-19T01:54:10;3.40;;;2.30;;
78840;SDS011;68379;47.190;27.558;2023-06-19T01:56:39;4.00;;;2.30;;
78840;SDS011;68379;47.190;27.558;2023-06-19T01:59:08;4.50;;;1.90;;
78840;SDS011;68379;47.190;27.558;2023-06-19T02:01:37;4.50;;;1.60;;
78840;SDS011;68379;47.190;27.558;2023-06-19T02:04:06;3.50;;;1.60;;
78840;SDS011;68379;47.190;27.558;2023-06-19T02:06:35;3.50;;;1.90;;
78840;SDS011;68379;47.190;27.558;2023-06-19T02:09:05;2.90;;;1.70;;
78840;SDS011;68379;47.190;27.558;2023-06-19T02:11:35;3.30;;;1.40;;
78840;SDS011;68379;47.190;27.558;2023-06-19T02:14:04;3.30;;;1.40;;
78840;SDS011;68379;47.190;27.558;2023-06-19T02:16:33;3.10;;;1.50;;
78840;SDS011;68379;47.190;27.558;2023-06-19T02:19:02;2.10;;;1.30;;
78840;SDS011;68379;47.190;27.558;2023-06-19T02:21:31;3.10;;;1.60;;
78840;SDS011;68379;47.190;27.558;2023-06-19T02:24:01;4.40;;;1.60;;
78840;SDS011;68379;47.190;27.558;2023-06-19T02:26:31;2.60;;;1.30;;
78840;SDS011;68379;47.190;27.558;2023-06-19T02:29:00;3.40;;;1.30;;
78840;SDS011;68379;47.190;27.558;2023-06-19T02:31:29;3.10;;;1.30;;
78840;SDS011;68379;47.190;27.558;2023-06-19T02:33:59;1.90;;;1.10;;
78840;SDS011;68379;47.190;27.558;2023-06-19T02:36:27;2.60;;;1.30;;
78840;SDS011;68379;47.190;27.558;2023-06-19T02:38:57;3.70;;;1.20;;
78840;SDS011;68379;47.190;27.558;2023-06-19T02:41:26;2.50;;;1.40;;
78840;SDS011;68379;47.190;27.558;2023-06-19T02:43:56;1.90;;;1.00;;
78840;SDS011;68379;47.190;27.558;2023-06-19T02:46:25;2.70;;;1.30;;
78840;SDS011;68379;47.190;27.558;2023-06-19T02:48:54;3.20;;;0.90;;
78840;SDS011;68379;47.190;27.558;2023-06-19T02:51:22;5.10;;;1.30;;
78840;SDS011;68379;47.190;27.558;2023-06-19T02:53:51;3.40;;;1.60;;
78840;SDS011;68379;47.190;27.558;2023-06-19T02:56:21;2.90;;;1.60;;
78840;SDS011;68379;47.190;27.558;2023-06-19T02:58:51;2.90;;;1.40;;
78840;SDS011;68379;47.190;27.558;2023-06-19T03:01:20;2.70;;;1.30;;
78840;SDS011;68379;47.190;27.558;2023-06-19T03:03:50;4.10;;;1.50;;
78840;SDS011;68379;47.190;27.558;2023-06-19T03:06:19;3.50;;;1.40;;
78840;SDS011;68379;47.190;27.558;2023-06-19T03:08:48;3.30;;;1.50;;
78840;SDS011;68379;47.190;27.558;2023-06-19T03:11:17;3.20;;;1.80;;
78840;SDS011;68379;47.190;27.558;2023-06-19T03:13:47;3.10;;;1.50;;
78840;SDS011;68379;47.190;27.558;2023-06-19T03:16:18;4.80;;;2.20;;
78840;SDS011;68379;47.190;27.558;2023-06-19T03:18:47;5.50;;;1.70;;
78840;SDS011;68379;47.190;27.558;2023-06-19T03:21:16;3.30;;;2.10;;
78840;SDS011;68379;47.190;27.558;2023-06-19T03:23:46;3.60;;;2.00;;
78840;SDS011;68379;47.190;27.558;2023-06-19T03:26:15;4.50;;;1.50;;
78840;SDS011;68379;47.190;27.558;2023-06-19T03:28:46;5.10;;;2.00;;
78840;SDS011;68379;47.190;27.558;2023-06-19T03:31:15;5.70;;;2.50;;
78840;SDS011;68379;47.190;27.558;2023-06-19T03:33:44;3.50;;;2.00;;
78840;SDS011;68379;47.190;27.558;2023-06-19T03:36:13;4.60;;;2.10;;
78840;SDS011;68379;47.190;27.558;2023-06-19T03:38:43;3.70;;;2.40;;
78840;SDS011;68379;47.190;27.558;2023-06-19T03:41:12;6.00;;;2.30;;
78840;SDS011;68379;47.190;27.558;2023-06-19T03:43:41;2.70;;;1.90;;
78840;SDS011;68379;47.190;27.558;2023-06-19T03:46:10;4.30;;;2.30;;
78840;SDS011;68379;47.190;27.558;2023-06-19T03:48:39;4.20;;;2.60;;
78840;SDS011;68379;47.190;27.558;2023-06-19T03:51:08;4.00;;;2.20;;
78840;SDS011;68379;47.190;27.558;2023-06-19T03:53:37;4.60;;;2.70;;
78840;SDS011;68379;47.190;27.558;2023-06-19T03:56:08;6.60;;;2.70;;
78840;SDS011;68379;47.190;27.558;2023-06-19T03:58:37;4.10;;;2.70;;
78840;SDS011;68379;47.190;27.558;2023-06-19T04:01:06;3.30;;;2.30;;
78840;SDS011;68379;47.190;27.558;2023-06-19T04:03:35;5.70;;;2.50;;
78840;SDS011;68379;47.190;27.558;2023-06-19T04:06:04;4.10;;;2.70;;
78840;SDS011;68379;47.190;27.558;2023-06-19T04:08:34;4.40;;;2.90;;
78840;SDS011;68379;47.190;27.558;2023-06-19T04:11:03;4.10;;;2.70;;
78840;SDS011;68379;47.190;27.558;2023-06-19T04:13:33;4.10;;;2.50;;
78840;SDS011;68379;47.190;27.558;2023-06-19T04:16:03;3.30;;;2.10;;
78840;SDS011;68379;47.190;27.558;2023-06-19T04:18:32;5.10;;;2.40;;
78840;SDS011;68379;47.190;27.558;2023-06-19T04:21:02;4.20;;;2.50;;
78840;SDS011;68379;47.190;27.558;2023-06-19T04:23:31;4.60;;;2.70;;
78840;SDS011;68379;47.190;27.558;2023-06-19T04:26:01;4.40;;;3.00;;
78840;SDS011;68379;47.190;27.558;2023-06-19T04:28:30;4.80;;;2.80;;
78840;SDS011;68379;47.190;27.558;2023-06-19T04:31:00;3.90;;;2.90;;
78840;SDS011;68379;47.190;27.558;2023-06-19T04:33:29;5.00;;;3.20;;
78840;SDS011;68379;47.190;27.558;2023-06-19T04:35:59;6.70;;;3.00;;
78840;SDS011;68379;47.190;27.558;2023-06-19T04:38:28;5.80;;;3.70;;
78840;SDS011;68379;47.190;27.558;2023-06-19T04:40:58;4.80;;;2.50;;
78840;SDS011;68379;47.190;27.558;2023-06-19T04:43:27;4.40;;;3.00;;
78840;SDS011;68379;47.190;27.558;2023-06-19T04:45:56;6.20;;;3.30;;
78840;SDS011;68379;47.190;27.558;2023-06-19T04:48:26;5.00;;;3.00;;
78840;SDS011;68379;47.190;27.558;2023-06-19T04:50:56;6.20;;;2.90;;
78840;SDS011;68379;47.190;27.558;2023-06-19T04:53:27;6.10;;;2.90;;
78840;SDS011;68379;47.190;27.558;2023-06-19T04:55:57;4.40;;;2.90;;
78840;SDS011;68379;47.190;27.558;2023-06-19T04:58:26;5.50;;;3.10;;
78840;SDS011;68379;47.190;27.558;2023-06-19T05:00:56;3.80;;;3.10;;
78840;SDS011;68379;47.190;27.558;2023-06-19T05:03:25;7.00;;;3.10;;
78840;SDS011;68379;47.190;27.558;2023-06-19T05:05:54;5.60;;;2.80;;
78840;SDS011;68379;47.190;27.558;2023-06-19T05:08:23;4.00;;;2.90;;
78840;SDS011;68379;47.190;27.558;2023-06-19T05:10:52;4.40;;;3.20;;
78840;SDS011;68379;47.190;27.558;2023-06-19T05:13:21;5.70;;;3.00;;
78840;SDS011;68379;47.190;27.558;2023-06-19T05:15:51;5.10;;;3.70;;
78840;SDS011;68379;47.190;27.558;2023-06-19T05:18:20;4.80;;;3.50;;
78840;SDS011;68379;47.190;27.558;2023-06-19T05:20:49;7.50;;;3.70;;
78840;SDS011;68379;47.190;27.558;2023-06-19T05:23:19;8.00;;;3.90;;
78840;SDS011;68379;47.190;27.558;2023-06-19T05:25:49;6.30;;;3.50;;
78840;SDS011;68379;47.190;27.558;2023-06-19T05:28:18;8.30;;;4.20;;
78840;SDS011;68379;47.190;27.558;2023-06-19T05:30:47;9.30;;;4.00;;
78840;SDS011;68379;47.190;27.558;2023-06-19T05:33:17;8.00;;;4.60;;
78840;SDS011;68379;47.190;27.558;2023-06-19T05:35:46;7.00;;;4.10;;
78840;SDS011;68379;47.190;27.558;2023-06-19T05:38:20;9.10;;;4.40;;
78840;SDS011;68379;47.190;27.558;2023-06-19T05:40:52;8.50;;;4.20;;
78840;SDS011;68379;47.190;27.558;2023-06-19T05:43:22;7.80;;;4.80;;
78840;SDS011;68379;47.190;27.558;2023-06-19T05:45:52;9.10;;;4.60;;
78840;SDS011;68379;47.190;27.558;2023-06-19T05:48:22;7.90;;;4.70;;
78840;SDS011;68379;47.190;27.558;2023-06-19T05:50:52;7.80;;;4.60;;
78840;SDS011;68379;47.190;27.558;2023-06-19T05:53:21;10.10;;;6.20;;
78840;SDS011;68379;47.190;27.558;2023-06-19T05:55:50;10.40;;;4.90;;
78840;SDS011;68379;47.190;27.558;2023-06-19T05:58:19;10.10;;;4.90;;
78840;SDS011;68379;47.190;27.558;2023-06-19T06:00:48;7.70;;;4.80;;
78840;SDS011;68379;47.190;27.558;2023-06-19T06:03:18;8.90;;;5.40;;
78840;SDS011;68379;47.190;27.558;2023-06-19T06:05:47;8.60;;;5.30;;
78840;SDS011;68379;47.190;27.558;2023-06-19T06:08:17;10.20;;;5.40;;
78840;SDS011;68379;47.190;27.558;2023-06-19T06:10:46;11.50;;;6.30;;
78840;SDS011;68379;47.190;27.558;2023-06-19T06:13:15;13.40;;;6.00;;
78840;SDS011;68379;47.190;27.558;2023-06-19T06:15:44;9.60;;;6.10;;
78840;SDS011;68379;47.190;27.558;2023-06-19T06:18:14;11.00;;;6.10;;
78840;SDS011;68379;47.190;27.558;2023-06-19T06:20:43;11.00;;;6.10;;
78840;SDS011;68379;47.190;27.558;2023-06-19T06:23:12;9.40;;;5.90;;
78840;SDS011;68379;47.190;27.558;2023-06-19T06:25:42;11.80;;;6.60;;
78840;SDS011;68379;47.190;27.558;2023-06-19T06:28:12;10.20;;;6.30;;
78840;SDS011;68379;47.190;27.558;2023-06-19T06:30:42;12.80;;;7.00;;
78840;SDS011;68379;47.190;27.558;2023-06-19T06:33:11;12.00;;;6.80;;
78840;SDS011;68379;47.190;27.558;2023-06-19T06:35:40;13.60;;;6.90;;
78840;SDS011;68379;47.190;27.558;2023-06-19T06:38:09;14.30;;;6.90;;
78840;SDS011;68379;47.190;27.558;2023-06-19T06:40:39;9.70;;;6.10;;
78840;SDS011;68379;47.190;27.558;2023-06-19T06:43:10;9.70;;;5.90;;
78840;SDS011;68379;47.190;27.558;2023-06-19T06:45:39;10.00;;;6.60;;
78840;SDS011;68379;47.190;27.558;2023-06-19T06:48:09;11.50;;;6.10;;
78840;SDS011;68379;47.190;27.558;2023-06-19T06:50:41;9.60;;;5.60;;
78840;SDS011;68379;47.190;27.558;2023-06-19T06:53:10;7.90;;;6.10;;
78840;SDS011;68379;47.190;27.558;2023-06-19T06:55:40;9.20;;;6.50;;
78840;SDS011;68379;47.190;27.558;2023-06-19T06:58:09;9.50;;;6.20;;
78840;SDS011;68379;47.190;27.558;2023-06-19T07:00:39;11.10;;;6.10;;
78840;SDS011;68379;47.190;27.558;2023-06-19T07:03:09;7.90;;;5.20;;
78840;SDS011;68379;47.190;27.558;2023-06-19T07:05:38;10.30;;;5.30;;
78840;SDS011;68379;47.190;27.558;2023-06-19T07:08:07;6.80;;;4.80;;
78840;SDS011;68379;47.190;27.558;2023-06-19T07:10:36;7.70;;;5.70;;
78840;SDS011;68379;47.190;27.558;2023-06-19T07:13:05;7.60;;;5.40;;
78840;SDS011;68379;47.190;27.558;2023-06-19T07:15:34;8.90;;;5.80;;
78840;SDS011;68379;47.190;27.558;2023-06-19T07:18:04;10.50;;;6.00;;
78840;SDS011;68379;47.190;27.558;2023-06-19T07:20:33;8.60;;;5.50;;
78840;SDS011;68379;47.190;27.558;2023-06-19T07:23:02;12.10;;;6.00;;
78840;SDS011;68379;47.190;27.558;2023-06-19T07:25:32;8.30;;;5.40;;
78840;SDS011;68379;47.190;27.558;2023-06-19T07:28:01;7.40;;;5.40;;
78840;SDS011;68379;47.190;27.558;2023-06-19T07:30:31;8.60;;;5.70;;
78840;SDS011;68379;47.190;27.558;2023-06-19T07:33:00;8.30;;;5.50;;
78840;SDS011;68379;47.190;27.558;2023-06-19T07:35:29;7.10;;;4.90;;
78840;SDS011;68379;47.190;27.558;2023-06-19T07:37:58;6.70;;;5.00;;
78840;SDS011;68379;47.190;27.558;2023-06-19T07:40:27;5.70;;;4.50;;
78840;SDS011;68379;47.190;27.558;2023-06-19T07:42:56;7.20;;;5.60;;
78840;SDS011;68379;47.190;27.558;2023-06-19T07:45:26;9.60;;;5.90;;
78840;SDS011;68379;47.190;27.558;2023-06-19T07:47:55;8.80;;;5.60;;
78840;SDS011;68379;47.190;27.558;2023-06-19T07:50:24;6.20;;;4.50;;
78840;SDS011;68379;47.190;27.558;2023-06-19T07:52:54;6.00;;;4.80;;
78840;SDS011;68379;47.190;27.558;2023-06-19T07:55:23;9.90;;;5.20;;
78840;SDS011;68379;47.190;27.558;2023-06-19T07:57:52;8.00;;;5.60;;
78840;SDS011;68379;47.190;27.558;2023-06-19T08:00:24;7.00;;;5.70;;
78840;SDS011;68379;47.190;27.558;2023-06-19T08:02:53;9.20;;;5.30;;
78840;SDS011;68379;47.190;27.558;2023-06-19T08:05:22;8.20;;;5.20;;
78840;SDS011;68379;47.190;27.558;2023-06-19T08:07:51;4.90;;;4.10;;
78840;SDS011;68379;47.190;27.558;2023-06-19T08:10:20;6.50;;;4.40;;
78840;SDS011;68379;47.190;27.558;2023-06-19T08:12:50;7.60;;;4.60;;
78840;SDS011;68379;47.190;27.558;2023-06-19T08:15:19;5.70;;;5.10;;
78840;SDS011;68379;47.190;27.558;2023-06-19T08:17:48;8.10;;;5.50;;
78840;SDS011;68379;47.190;27.558;2023-06-19T08:20:17;7.60;;;5.00;;
78840;SDS011;68379;47.190;27.558;2023-06-19T08:22:47;6.50;;;5.40;;
78840;SDS011;68379;47.190;27.558;2023-06-19T08:25:17;9.20;;;6.80;;
78840;SDS011;68379;47.190;27.558;2023-06-19T08:27:48;7.30;;;6.10;;
78840;SDS011;68379;47.190;27.558;2023-06-19T08:30:17;6.30;;;5.70;;
78840;SDS011;68379;47.190;27.558;2023-06-19T08:32:49;9.20;;;6.30;;
78840;SDS011;68379;47.190;27.558;2023-06-19T08:35:18;6.50;;;5.90;;
78840;SDS011;68379;47.190;27.558;2023-06-19T08:37:47;8.00;;;6.20;;
78840;SDS011;68379;47.190;27.558;2023-06-19T08:40:17;7.30;;;5.90;;
78840;SDS011;68379;47.190;27.558;2023-06-19T08:42:47;7.90;;;6.90;;
78840;SDS011;68379;47.190;27.558;2023-06-19T08:45:16;8.40;;;6.50;;
78840;SDS011;68379;47.190;27.558;2023-06-19T08:47:47;8.50;;;6.30;;
78840;SDS011;68379;47.190;27.558;2023-06-19T08:50:16;7.30;;;5.70;;
78840;SDS011;68379;47.190;27.558;2023-06-19T08:52:46;6.40;;;5.80;;
78840;SDS011;68379;47.190;27.558;2023-06-19T08:55:15;8.90;;;6.40;;
78840;SDS011;68379;47.190;27.558;2023-06-19T08:57:44;6.10;;;5.50;;
78840;SDS011;68379;47.190;27.558;2023-06-19T09:00:25;6.80;;;5.60;;
78840;SDS011;68379;47.190;27.558;2023-06-19T09:02:59;7.40;;;5.20;;
78840;SDS011;68379;47.190;27.558;2023-06-19T09:05:30;6.60;;;5.80;;
78840;SDS011;68379;47.190;27.558;2023-06-19T09:08:00;6.80;;;5.90;;
78840;SDS011;68379;47.190;27.558;2023-06-19T09:10:30;6.40;;;5.60;;
78840;SDS011;68379;47.190;27.558;2023-06-19T09:12:59;7.10;;;5.90;;
78840;SDS011;68379;47.190;27.558;2023-06-19T09:15:29;5.60;;;5.00;;
78840;SDS011;68379;47.190;27.558;2023-06-19T09:18:00;6.60;;;5.00;;
78840;SDS011;68379;47.190;27.558;2023-06-19T09:20:30;6.10;;;4.50;;
78840;SDS011;68379;47.190;27.558;2023-06-19T09:23:00;6.10;;;5.50;;
78840;SDS011;68379;47.190;27.558;2023-06-19T09:25:29;5.50;;;5.00;;
78840;SDS011;68379;47.190;27.558;2023-06-19T09:27:58;7.10;;;6.10;;
78840;SDS011;68379;47.190;27.558;2023-06-19T09:30:27;6.80;;;6.10;;
78840;SDS011;68379;47.190;27.558;2023-06-19T09:33:05;5.80;;;5.30;;
78840;SDS011;68379;47.190;27.558;2023-06-19T09:35:35;5.70;;;5.10;;
78840;SDS011;68379;47.190;27.558;2023-06-19T09:38:04;6.10;;;5.50;;
78840;SDS011;68379;47.190;27.558;2023-06-19T09:40:34;7.20;;;5.30;;
78840;SDS011;68379;47.190;27.558;2023-06-19T09:43:04;6.30;;;5.60;;
78840;SDS011;68379;47.190;27.558;2023-06-19T09:45:34;6.90;;;5.90;;
78840;SDS011;68379;47.190;27.558;2023-06-19T09:48:05;7.90;;;6.50;;
78840;SDS011;68379;47.190;27.558;2023-06-19T09:50:40;7.00;;;6.00;;
78840;SDS011;68379;47.190;27.558;2023-06-19T09:53:10;7.90;;;6.20;;
78840;SDS011;68379;47.190;27.558;2023-06-19T09:55:39;7.10;;;6.40;;
78840;SDS011;68379;47.190;27.558;2023-06-19T09:58:09;8.30;;;7.10;;
78840;SDS011;68379;47.190;27.558;2023-06-19T10:00:38;7.50;;;6.60;;
78840;SDS011;68379;47.190;27.558;2023-06-19T10:03:12;8.90;;;7.00;;
78840;SDS011;68379;47.190;27.558;2023-06-19T10:05:43;8.30;;;7.10;;
78840;SDS011;68379;47.190;27.558;2023-06-19T10:08:13;8.10;;;7.30;;
78840;SDS011;68379;47.190;27.558;2023-06-19T10:10:46;8.10;;;7.30;;
78840;SDS011;68379;47.190;27.558;2023-06-19T10:13:16;8.80;;;7.00;;
78840;SDS011;68379;47.190;27.558;2023-06-19T10:15:45;9.40;;;8.40;;
78840;SDS011;68379;47.190;27.558;2023-06-19T10:18:15;10.60;;;8.70;;
78840;SDS011;68379;47.190;27.558;2023-06-19T10:20:45;11.50;;;9.00;;
78840;SDS011;68379;47.190;27.558;2023-06-19T10:23:16;10.30;;;8.10;;
78840;SDS011;68379;47.190;27.558;2023-06-19T10:25:46;9.80;;;8.00;;
78840;SDS011;68379;47.190;27.558;2023-06-19T10:28:17;11.80;;;8.00;;
78840;SDS011;68379;47.190;27.558;2023-06-19T10:30:52;11.00;;;8.30;;
78840;SDS011;68379;47.190;27.558;2023-06-19T10:33:22;9.80;;;8.20;;
78840;SDS011;68379;47.190;27.558;2023-06-19T10:35:52;10.50;;;9.20;;
78840;SDS011;68379;47.190;27.558;2023-06-19T10:38:21;10.70;;;8.40;;
78840;SDS011;68379;47.190;27.558;2023-06-19T10:40:50;9.20;;;8.20;;
78840;SDS011;68379;47.190;27.558;2023-06-19T10:43:20;8.90;;;8.00;;
78840;SDS011;68379;47.190;27.558;2023-06-19T10:45:51;8.70;;;7.80;;
78840;SDS011;68379;47.190;27.558;2023-06-19T10:48:21;8.30;;;7.40;;
78840;SDS011;68379;47.190;27.558;2023-06-19T10:50:52;11.10;;;8.10;;
78840;SDS011;68379;47.190;27.558;2023-06-19T10:53:24;8.40;;;7.60;;
78840;SDS011;68379;47.190;27.558;2023-06-19T10:55:57;9.20;;;7.30;;
78840;SDS011;68379;47.190;27.558;2023-06-19T10:58:26;9.00;;;7.00;;
78840;SDS011;68379;47.190;27.558;2023-06-19T11:00:56;8.00;;;7.10;;
78840;SDS011;68379;47.190;27.558;2023-06-19T11:03:25;8.70;;;6.60;;
78840;SDS011;68379;47.190;27.558;2023-06-19T11:05:55;8.40;;;6.50;;
78840;SDS011;68379;47.190;27.558;2023-06-19T11:08:24;7.50;;;6.40;;
78840;SDS011;68379;47.190;27.558;2023-06-19T11:10:53;7.00;;;5.80;;
78840;SDS011;68379;47.190;27.558;2023-06-19T11:13:23;8.90;;;5.80;;
78840;SDS011;68379;47.190;27.558;2023-06-19T11:15:54;10.10;;;5.90;;
78840;SDS011;68379;47.190;27.558;2023-06-19T11:18:25;7.70;;;6.20;;
78840;SDS011;68379;47.190;27.558;2023-06-19T11:20:54;6.10;;;5.10;;
78840;SDS011;68379;47.190;27.558;2023-06-19T11:23:28;6.00;;;5.40;;
78840;SDS011;68379;47.190;27.558;2023-06-19T11:26:03;6.50;;;5.10;;
78840;SDS011;68379;47.190;27.558;2023-06-19T11:28:32;6.70;;;4.50;;
78840;SDS011;68379;47.190;27.558;2023-06-19T11:31:02;4.60;;;4.00;;
78840;SDS011;68379;47.190;27.558;2023-06-19T11:33:32;6.20;;;5.00;;
78840;SDS011;68379;47.190;27.558;2023-06-19T11:36:01;6.70;;;4.50;;
78840;SDS011;68379;47.190;27.558;2023-06-19T11:38:30;8.00;;;4.90;;
78840;SDS011;68379;47.190;27.558;2023-06-19T11:41:01;6.10;;;4.80;;
78840;SDS011;68379;47.190;27.558;2023-06-19T11:43:31;7.50;;;5.10;;
78840;SDS011;68379;47.190;27.558;2023-06-19T11:46:03;5.70;;;4.10;;
78840;SDS011;68379;47.190;27.558;2023-06-19T11:48:37;5.70;;;5.00;;
78840;SDS011;68379;47.190;27.558;2023-06-19T11:51:06;5.80;;;4.70;;
78840;SDS011;68379;47.190;27.558;2023-06-19T11:53:36;6.10;;;5.30;;
78840;SDS011;68379;47.190;27.558;2023-06-19T11:56:05;7.10;;;5.70;;
78840;SDS011;68379;47.190;27.558;2023-06-19T11:58:34;7.40;;;5.50;;
78840;SDS011;68379;47.190;27.558;2023-06-19T12:01:03;6.40;;;5.10;;
78840;SDS011;68379;47.190;27.558;2023-06-19T12:03:32;6.80;;;4.70;;
78840;SDS011;68379;47.190;27.558;2023-06-19T12:06:01;7.70;;;5.10;;
78840;SDS011;68379;47.190;27.558;2023-06-19T12:08:30;8.40;;;5.90;;
78840;SDS011;68379;47.190;27.558;2023-06-19T12:11:00;5.20;;;4.70;;
78840;SDS011;68379;47.190;27.558;2023-06-19T12:13:30;6.70;;;5.50;;
78840;SDS011;68379;47.190;27.558;2023-06-19T12:15:59;6.40;;;5.10;;
78840;SDS011;68379;47.190;27.558;2023-06-19T12:18:28;6.20;;;5.00;;
78840;SDS011;68379;47.190;27.558;2023-06-19T12:21:00;5.10;;;4.60;;
78840;SDS011;68379;47.190;27.558;2023-06-19T12:23:29;5.00;;;4.50;;
78840;SDS011;68379;47.190;27.558;2023-06-19T12:25:58;4.60;;;4.00;;
78840;SDS011;68379;47.190;27.558;2023-06-19T12:28:27;4.70;;;4.00;;
78840;SDS011;68379;47.190;27.558;2023-06-19T12:30:56;4.10;;;3.60;;
78840;SDS011;68379;47.190;27.558;2023-06-19T12:33:26;5.70;;;2.90;;
78840;SDS011;68379;47.190;27.558;2023-06-19T12:36:00;3.30;;;2.70;;
78840;SDS011;68379;47.190;27.558;2023-06-19T12:38:29;3.70;;;2.80;;
78840;SDS011;68379;47.190;27.558;2023-06-19T12:40:59;3.70;;;3.00;;
78840;SDS011;68379;47.190;27.558;2023-06-19T12:43:28;5.70;;;3.20;;
78840;SDS011;68379;47.190;27.558;2023-06-19T12:45:58;3.60;;;3.30;;
78840;SDS011;68379;47.190;27.558;2023-06-19T12:48:28;3.20;;;2.90;;
78840;SDS011;68379;47.190;27.558;2023-06-19T12:50:57;3.10;;;2.80;;
78840;SDS011;68379;47.190;27.558;2023-06-19T12:53:26;3.20;;;2.90;;
78840;SDS011;68379;47.190;27.558;2023-06-19T12:55:57;3.70;;;2.70;;
78840;SDS011;68379;47.190;27.558;2023-06-19T12:58:27;3.00;;;2.60;;
78840;SDS011;68379;47.190;27.558;2023-06-19T13:00:56;3.50;;;2.70;;
78840;SDS011;68379;47.190;27.558;2023-06-19T13:03:25;4.50;;;2.90;;
78840;SDS011;68379;47.190;27.558;2023-06-19T13:05:54;2.90;;;2.60;;
78840;SDS011;68379;47.190;27.558;2023-06-19T13:08:23;3.90;;;3.00;;
78840;SDS011;68379;47.190;27.558;2023-06-19T13:10:52;3.40;;;2.40;;
78840;SDS011;68379;47.190;27.558;2023-06-19T13:13:21;5.10;;;2.90;;
78840;SDS011;68379;47.190;27.558;2023-06-19T13:15:50;4.20;;;2.90;;
78840;SDS011;68379;47.190;27.558;2023-06-19T13:18:19;3.40;;;2.70;;
78840;SDS011;68379;47.190;27.558;2023-06-19T13:20:49;3.90;;;3.10;;
78840;SDS011;68379;47.190;27.558;2023-06-19T13:23:17;3.80;;;3.00;;
78840;SDS011;68379;47.190;27.558;2023-06-19T13:25:48;3.50;;;3.20;;
78840;SDS011;68379;47.190;27.558;2023-06-19T13:28:17;4.40;;;2.90;;
78840;SDS011;68379;47.190;27.558;2023-06-19T13:30:46;4.20;;;3.70;;
78840;SDS011;68379;47.190;27.558;2023-06-19T13:33:15;4.20;;;2.90;;
78840;SDS011;68379;47.190;27.558;2023-06-19T13:35:45;4.90;;;3.50;;
78840;SDS011;68379;47.190;27.558;2023-06-19T13:38:14;3.90;;;3.50;;
78840;SDS011;68379;47.190;27.558;2023-06-19T13:40:44;4.10;;;3.70;;
78840;SDS011;68379;47.190;27.558;2023-06-19T13:43:13;4.10;;;3.30;;
78840;SDS011;68379;47.190;27.558;2023-06-19T13:45:43;5.20;;;3.40;;
78840;SDS011;68379;47.190;27.558;2023-06-19T13:48:13;4.10;;;3.20;;
78840;SDS011;68379;47.190;27.558;2023-06-19T13:50:42;4.80;;;3.50;;
78840;SDS011;68379;47.190;27.558;2023-06-19T13:53:11;5.60;;;3.40;;
78840;SDS011;68379;47.190;27.558;2023-06-19T13:55:40;5.70;;;3.20;;
78840;SDS011;68379;47.190;27.558;2023-06-19T13:58:09;3.80;;;3.40;;
78840;SDS011;68379;47.190;27.558;2023-06-19T14:00:38;5.70;;;3.50;;
78840;SDS011;68379;47.190;27.558;2023-06-19T14:03:07;4.30;;;3.90;;
78840;SDS011;68379;47.190;27.558;2023-06-19T14:05:36;4.80;;;3.40;;
78840;SDS011;68379;47.190;27.558;2023-06-19T14:08:05;4.90;;;3.40;;
78840;SDS011;68379;47.190;27.558;2023-06-19T14:10:35;5.40;;;3.30;;
78840;SDS011;68379;47.190;27.558;2023-06-19T14:13:04;3.80;;;3.40;;
78840;SDS011;68379;47.190;27.558;2023-06-19T14:15:33;4.50;;;3.50;;
78840;SDS011;68379;47.190;27.558;2023-06-19T14:18:03;7.00;;;4.20;;
78840;SDS011;68379;47.190;27.558;2023-06-19T14:20:32;3.90;;;3.50;;
78840;SDS011;68379;47.190;27.558;2023-06-19T14:23:01;4.00;;;3.10;;
78840;SDS011;68379;47.190;27.558;2023-06-19T14:25:30;4.80;;;3.60;;
78840;SDS011;68379;47.190;27.558;2023-06-19T14:27:58;3.60;;;3.30;;
78840;SDS011;68379;47.190;27.558;2023-06-19T14:30:27;4.70;;;4.00;;
78840;SDS011;68379;47.190;27.558;2023-06-19T14:32:56;5.60;;;3.90;;
78840;SDS011;68379;47.190;27.558;2023-06-19T14:35:25;5.30;;;4.00;;
78840;SDS011;68379;47.190;27.558;2023-06-19T14:37:55;4.50;;;3.80;;
78840;SDS011;68379;47.190;27.558;2023-06-19T14:40:24;5.30;;;3.90;;
78840;SDS011;68379;47.190;27.558;2023-06-19T14:42:53;4.10;;;3.20;;
78840;SDS011;68379;47.190;27.558;2023-06-19T14:45:22;3.70;;;3.40;;
78840;SDS011;68379;47.190;27.558;2023-06-19T14:47:51;4.30;;;3.50;;